Time;durP1;ratioP1;P1;durP2;ratioP2;P2;SDS_P1;SDS_P2;PMS_P1;PMS_P2;Temp;Humidity;BMP_temperature;BMP_pressure;BME280_temperature;BME280_humidity;BME280_pressure;Samples;Min_cycle;Max_cycle;Signal;HPM_P1;HPM_P2
2022/07/20 00:05:30;;;;;;;3.05;1.33;;;;;;;;;;21168096;28;20277;-70
2022/07/20 00:15:32;;;;;;;2.65;1.20;;;;;;;;;;21161126;27;20526;-70
2022/07/20 00:25:34;;;;;;;2.15;1.25;;;;;;;;;;21119240;28;20223;-70
2022/07/20 00:35:36;;;;;;;4.70;1.58;;;;;;;;;;21164888;28;20215;-69
2022/07/20 00:45:38;;;;;;;4.25;1.13;;;;;;;;;;21162462;28;20289;-70
2022/07/20 00:55:40;;;;;;;4.43;1.17;;;;;;;;;;21162954;28;20238;-70
2022/07/20 01:05:41;;;;;;;2.85;0.95;;;;;;;;;;21162705;28;20234;-70
2022/07/20 01:15:43;;;;;;;1.90;1.08;;;;;;;;;;21162465;28;20219;-69
2022/07/20 01:25:45;;;;;;;2.42;1.15;;;;;;;;;;21161542;28;20590;-70
2022/07/20 01:35:46;;;;;;;2.83;1.23;;;;;;;;;;21160752;28;20208;-69
2022/07/20 01:45:48;;;;;;;4.50;1.27;;;;;;;;;;21160540;28;20273;-69
2022/07/20 01:55:52;;;;;;;3.80;1.05;;;;;;;;;;21152285;27;20595;-69
2022/07/20 02:05:53;;;;;;;2.15;1.05;;;;;;;;;;21141525;28;20226;-70
2022/07/20 02:26:16;;;;;;;4.28;1.30;;;;;;;;;;21148148;27;20238;-69
2022/07/20 02:36:18;;;;;;;3.28;1.13;;;;;;;;;;21116545;27;20279;-70
2022/07/20 02:46:40;;;;;;;2.03;1.10;;;;;;;;;;21113764;28;20693;-69
2022/07/20 02:56:42;;;;;;;2.67;1.50;;;;;;;;;;21155130;28;20765;-69
2022/07/20 03:06:44;;;;;;;15.27;2.10;;;;;;;;;;21145066;28;20618;-70
2022/07/20 03:16:50;;;;;;;13.90;2.55;;;;;;;;;;21176674;28;20625;-69
2022/07/20 03:26:52;;;;;;;10.73;2.03;;;;;;;;;;21181346;27;20219;-70
2022/07/20 03:36:54;;;;;;;12.68;2.33;;;;;;;;;;21181961;28;20217;-68
2022/07/20 03:46:55;;;;;;;8.13;2.30;;;;;;;;;;21180962;28;20641;-67
2022/07/20 03:56:57;;;;;;;4.05;1.65;;;;;;;;;;21180706;28;20629;-68
2022/07/20 04:06:59;;;;;;;9.63;2.47;;;;;;;;;;21188050;22;20227;-72
2022/07/20 04:17:00;;;;;;;16.35;2.92;;;;;;;;;;21171060;27;20356;-72
2022/07/20 04:27:03;;;;;;;20.58;3.00;;;;;;;;;;21077239;28;20226;-72
2022/07/20 04:37:04;;;;;;;6.72;1.88;;;;;;;;;;21081196;28;20750;-71
2022/07/20 04:47:06;;;;;;;5.63;1.67;;;;;;;;;;21088383;28;20214;-72
2022/07/20 04:57:08;;;;;;;9.18;2.20;;;;;;;;;;21060949;28;20203;-72
2022/07/20 05:07:10;;;;;;;6.35;1.70;;;;;;;;;;21071195;28;20592;-72
2022/07/20 05:17:12;;;;;;;3.05;1.30;;;;;;;;;;21137866;28;20215;-71
2022/07/20 05:27:14;;;;;;;3.13;1.30;;;;;;;;;;21131299;28;20227;-70
2022/07/20 05:37:16;;;;;;;2.85;1.15;;;;;;;;;;21133176;28;20755;-70
2022/07/20 05:47:17;;;;;;;2.30;1.17;;;;;;;;;;21120818;28;20692;-69
2022/07/20 05:57:19;;;;;;;1.98;1.10;;;;;;;;;;21149776;28;20203;-69
2022/07/20 06:07:21;;;;;;;2.05;1.15;;;;;;;;;;21138406;28;20209;-69
2022/07/20 06:17:39;;;;;;;2.47;1.08;;;27.70;79.40;;;;;;21046586;28;20209;-70
2022/07/20 06:27:42;;;;;;;2.00;1.15;;;27.70;79.90;;;;;;21081665;28;20605;-69
2022/07/20 06:37:44;;;;;;;2.22;1.10;;;;;;;;;;21071162;28;20273;-69
2022/07/20 06:47:46;;;;;;;2.17;1.10;;;28.10;79.90;;;;;;21083218;28;20282;-70
2022/07/20 06:57:48;;;;;;;1.75;0.82;;;;;;;;;;21112478;28;20623;-69
2022/07/20 07:07:50;;;;;;;2.65;1.73;;;;;;;;;;21135515;28;20222;-70
2022/07/20 07:17:51;;;;;;;2.35;1.08;;;;;;;;;;21154309;28;20199;-69
2022/07/20 07:27:53;;;;;;;1.80;1.05;;;;;;;;;;21152688;28;20211;-70
2022/07/20 07:37:55;;;;;;;1.70;1.00;;;;;;;;;;21153697;28;20758;-70
2022/07/20 07:47:56;;;;;;;2.15;1.30;;;;;;;;;;21140490;28;20219;-70
2022/07/20 07:57:58;;;;;;;1.90;1.27;;;;;;;;;;21135034;28;20615;-70
2022/07/20 08:08:09;;;;;;;2.10;1.35;;;29.80;76.80;;;;;;21168237;28;20252;-70
2022/07/20 08:18:10;;;;;;;4.20;1.30;;;;;;;;;;21167505;28;20218;-70
2022/07/20 08:28:14;;;;;;;2.80;1.50;;;;;;;;;;21165871;28;20216;-69
2022/07/20 08:38:16;;;;;;;2.05;1.25;;;;;;;;;;21147433;28;20612;-70
2022/07/20 08:48:18;;;;;;;2.72;1.52;;;;;;;;;;21112049;28;20209;-70
2022/07/20 08:58:20;;;;;;;5.68;1.50;;;;;;;;;;21077695;28;20285;-70
2022/07/20 09:08:25;;;;;;;2.70;1.52;;;;;;;;;;21062168;28;20220;-71
2022/07/20 09:18:32;;;;;;;4.35;2.05;;;31.30;75.30;;;;;;21060550;28;20249;-70
2022/07/20 09:28:36;;;;;;;4.70;1.60;;;;;;;;;;21059353;28;20197;-71
2022/07/20 09:39:06;;;;;;;2.70;1.90;;;31.80;71.50;;;;;;21076729;28;20262;-71
2022/07/20 09:49:11;;;;;;;3.78;2.30;;;32.10;66.50;;;;;;21076337;28;20736;-71
2022/07/20 09:59:15;;;;;;;4.97;2.58;;;32.40;76.30;;;;;;21074187;28;20707;-71
2022/07/20 10:09:17;;;;;;;2.55;1.77;;;32.60;76.90;;;;;;21075488;28;20224;-70
2022/07/20 10:19:39;;;;;;;4.85;2.10;;;32.60;75.20;;;;;;21054961;28;20266;-71
2022/07/20 10:29:42;;;;;;;3.42;2.22;;;32.90;74.20;;;;;;21073734;28;20218;-71
2022/07/20 10:39:46;;;;;;;3.15;2.10;;;;;;;;;;21071723;28;20282;-71
2022/07/20 10:50:02;;;;;;;3.33;2.42;;;33.20;74.30;;;;;;21109988;28;20230;-70
2022/07/20 11:00:10;;;;;;;2.60;2.28;;;33.50;73.60;;;;;;21135879;28;20211;-70
2022/07/20 11:10:20;;;;;;;3.42;2.33;;;33.80;74.70;;;;;;21137317;28;20245;-71
2022/07/20 11:20:22;;;;;;;3.60;2.70;;;;;;;;;;21136034;28;20686;-70
2022/07/20 11:30:34;;;;;;;5.28;2.53;;;34.10;73.60;;;;;;21135654;28;20196;-71
2022/07/20 11:40:36;;;;;;;3.83;2.67;;;;;;;;;;21171154;28;20260;-71
2022/07/20 11:50:38;;;;;;;4.15;2.70;;;;;;;;;;21170186;28;20230;-72
2022/07/20 12:00:39;;;;;;;6.30;3.22;;;;;;;;;;21168683;28;20220;-71
2022/07/20 12:10:44;;;;;;;6.35;3.20;;;;;;;;;;21152479;28;20256;-71
2022/07/20 12:20:58;;;;;;;4.20;3.03;;;34.90;72.30;;;;;;21132409;28;20216;-71
2022/07/20 12:31:18;;;;;;;6.38;3.33;;;35.00;71.70;;;;;;21153111;28;20256;-70
2022/07/20 12:41:21;;;;;;;4.93;3.33;;;;;;;;;;21139486;28;20240;-71
2022/07/20 12:51:24;;;;;;;3.95;2.95;;;;;;;;;;21081216;28;20245;-71
2022/07/20 13:01:26;;;;;;;4.10;2.63;;;;;;;;;;21165380;28;20219;-70
2022/07/20 13:12:00;;;;;;;3.97;2.75;;;;;;;;;;21140872;28;20296;-71
2022/07/20 13:22:02;;;;;;;3.33;2.63;;;;;;;;;;21162729;28;20276;-70
2022/07/20 13:32:03;;;;;;;4.00;2.65;;;;;;;;;;21122702;28;20262;-70
2022/07/20 13:42:07;;;;;;;3.65;2.53;;;;;;;;;;21157416;28;20269;-71
2022/07/20 13:52:10;;;;;;;4.13;2.63;;;;;;;;;;21151143;28;20208;-69
2022/07/20 14:02:12;;;;;;;3.78;2.60;;;;;;;;;;21158506;28;20220;-70
2022/07/20 14:12:14;;;;;;;2.58;2.33;;;;;;;;;;21143503;28;20242;-71
2022/07/20 14:22:16;;;;;;;4.72;2.80;;;;;;;;;;21142872;28;20220;-70
2022/07/20 14:32:17;;;;;;;6.38;2.38;;;35.20;61.40;;;;;;21096942;28;20627;-71
2022/07/20 14:42:19;;;;;;;4.65;2.40;;;;;;;;;;21070784;28;20250;-70
2022/07/20 14:52:21;;;;;;;6.00;2.45;;;;;;;;;;21083290;28;20266;-71
2022/07/20 15:02:23;;;;;;;5.57;2.42;;;;;;;;;;21069269;28;20234;-71
2022/07/20 15:12:25;;;;;;;3.95;2.47;;;;;;;;;;21091620;28;20232;-71
2022/07/20 15:22:26;;;;;;;3.35;2.33;;;;;;;;;;21080819;28;20274;-71
2022/07/20 15:32:28;;;;;;;2.95;2.10;;;;;;;;;;21108059;28;20216;-71
2022/07/20 15:42:30;;;;;;;2.85;2.03;;;;;;;;;;21099720;28;20776;-71
2022/07/20 15:52:32;;;;;;;4.38;2.35;;;36.10;59.00;;;;;;21131848;28;20216;-71
2022/07/20 16:02:34;;;;;;;4.28;2.22;;;;;;;;;;21152969;28;20273;-71
2022/07/20 16:12:35;;;;;;;4.72;2.22;;;;;;;;;;21105624;28;20270;-71
2022/07/20 16:22:38;;;;;;;3.03;2.17;;;;;;;;;;21007283;22;20249;-70
2022/07/20 16:32:40;;;;;;;6.70;3.05;;;;;;;;;;21011067;28;20222;-70
2022/07/20 16:42:41;;;;;;;11.43;3.20;;;;;;;;;;20997773;28;20216;-70
2022/07/20 16:52:43;;;;;;;2.92;2.50;;;;;;;;;;20999367;28;20218;-72
2022/07/20 17:02:45;;;;;;;5.13;2.80;;;;;;;;;;20919757;28;20237;-75
2022/07/20 17:12:46;;;;;;;3.65;2.97;;;;;;;;;;21011807;28;20205;-70
2022/07/20 17:22:48;;;;;;;5.43;2.90;;;;;;;;;;20981448;28;20233;-71
2022/07/20 17:32:50;;;;;;;4.45;2.97;;;;;;;;;;20946458;28;20700;-70
2022/07/20 17:42:52;;;;;;;8.43;4.00;;;;;;;;;;20956708;28;20217;-70
2022/07/20 17:52:54;;;;;;;3.85;2.85;;;;;;;;;;20890062;28;20275;-69
2022/07/20 18:02:55;;;;;;;3.30;2.80;;;;;;;;;;20891040;28;20593;-72
2022/07/20 18:12:57;;;;;;;5.25;2.97;;;;;;;;;;20915701;28;20264;-69
2022/07/20 18:23:00;;;;;;;3.72;3.08;;;;;;;;;;20871827;28;20222;-73
2022/07/20 18:33:02;;;;;;;4.15;3.33;;;;;;;;;;20898375;28;20769;-72
2022/07/20 18:43:09;;;;;;;6.35;2.40;;;;;;;;;;20861642;28;20284;-73
2022/07/20 18:53:14;;;;;;;3.97;2.55;;;;;;;;;;20879415;28;20218;-75
2022/07/20 19:03:36;;;;;;;3.78;2.00;;;;;;;;;;20893523;28;20214;-75
2022/07/20 19:13:41;;;;;;;4.20;2.42;;;;;;;;;;20876770;28;20230;-76
2022/07/20 19:23:42;;;;;;;3.38;1.92;;;;;;;;;;20894159;28;20685;-75
2022/07/20 19:33:44;;;;;;;2.88;1.80;;;;;;;;;;20881816;28;20267;-75
2022/07/20 19:43:46;;;;;;;3.40;1.73;;;;;;;;;;20888380;28;20582;-73
2022/07/20 19:53:47;;;;;;;3.38;1.90;;;;;;;;;;20874307;28;20214;-71
2022/07/20 20:03:51;;;;;;;2.40;1.92;;;;;;;;;;20868826;28;20253;-73
2022/07/20 20:13:53;;;;;;;2.28;1.60;;;;;;;;;;20905900;28;20232;-71
2022/07/20 20:23:54;;;;;;;3.53;1.77;;;;;;;;;;20886222;28;20214;-72
2022/07/20 20:33:57;;;;;;;2.70;1.80;;;;;;;;;;20906054;28;20210;-71
2022/07/20 20:43:59;;;;;;;2.53;1.95;;;;;;;;;;20904407;28;20214;-74
2022/07/20 20:54:01;;;;;;;2.85;1.90;;;29.30;99.90;;;;;;20903111;28;20201;-73
2022/07/20 21:04:03;;;;;;;3.22;2.20;;;;;;;;;;20890181;28;20693;-74
2022/07/20 21:14:04;;;;;;;3.85;2.10;;;;;;;;;;20901276;28;20206;-74
2022/07/20 21:24:06;;;;;;;3.15;1.98;;;;;;;;;;20904151;28;20277;-70
2022/07/20 21:34:08;;;;;;;4.72;1.85;;;;;;;;;;20904110;28;20668;-71
2022/07/20 21:44:10;;;;;;;3.75;2.08;;;;;;;;;;20897692;28;20225;-72
2022/07/20 21:54:11;;;;;;;4.07;2.42;;;;;;;;;;20909880;28;20204;-74
2022/07/20 22:04:13;;;;;;;3.35;2.17;;;;;;;;;;20908639;28;20565;-74
2022/07/20 22:14:15;;;;;;;3.38;2.25;;;;;;;;;;20903757;28;20311;-74
2022/07/20 22:24:17;;;;;;;3.97;2.42;;;;;;;;;;20906540;28;20247;-73
2022/07/20 22:34:22;;;;;;;3.45;2.60;;;;;;;;;;20889414;28;20213;-73
2022/07/20 22:44:24;;;;;;;3.00;2.15;;;;;;;;;;20903831;28;20319;-73
2022/07/20 22:54:25;;;;;;;3.20;2.03;;;;;;;;;;20887133;28;20283;-72
2022/07/20 23:04:29;;;;;;;3.97;2.72;;;;;;;;;;20881571;28;20255;-73
2022/07/20 23:14:31;;;;;;;3.03;2.40;;;;;;;;;;20938372;28;20219;-73
2022/07/20 23:24:34;;;;;;;3.28;2.70;;;;;;;;;;20985671;28;20221;-72
2022/07/20 23:34:36;;;;;;;5.18;2.83;;;;;;;;;;20999518;28;20265;-73
2022/07/20 23:44:38;;;;;;;2.80;2.30;;;;;;;;;;20982626;28;20220;-73
2022/07/20 23:54:39;;;;;;;3.72;2.25;;;;;;;;;;21001366;28;20683;-72
